sensor_id;sensor_type;location;lat;lon;timestamp;pressure;altitude;pressure_sealevel;temperature;humidity
59825;BME280;45703;50.898;6.054;2023-03-04T00:00:04;101185.44;;;2.33;88.04
59825;BME280;45703;50.898;6.054;2023-03-04T00:02:30;101187.94;;;2.35;87.91
59825;BME280;45703;50.898;6.054;2023-03-04T00:04:55;101192.75;;;2.39;87.19
59825;BME280;45703;50.898;6.054;2023-03-04T00:07:21;101192.91;;;2.38;87.78
59825;BME280;45703;50.898;6.054;2023-03-04T00:09:46;101191.13;;;2.29;89.51
59825;BME280;45703;50.898;6.054;2023-03-04T00:12:12;101192.09;;;2.28;89.12
59825;BME280;45703;50.898;6.054;2023-03-04T00:14:37;101194.59;;;2.29;89.19
59825;BME280;45703;50.898;6.054;2023-03-04T00:17:03;101195.44;;;2.30;88.01
59825;BME280;45703;50.898;6.054;2023-03-04T00:19:29;101201.41;;;2.32;88.24
59825;BME280;45703;50.898;6.054;2023-03-04T00:21:55;101191.13;;;2.29;89.11
59825;BME280;45703;50.898;6.054;2023-03-04T00:24:20;101198.78;;;2.32;88.78
59825;BME280;45703;50.898;6.054;2023-03-04T00:26:45;101181.56;;;2.28;88.12
59825;BME280;45703;50.898;6.054;2023-03-04T00:29:11;101179.78;;;2.28;88.26
59825;BME280;45703;50.898;6.054;2023-03-04T00:31:36;101192.66;;;2.31;88.74
59825;BME280;45703;50.898;6.054;2023-03-04T00:34:02;101177.03;;;2.20;88.94
59825;BME280;45703;50.898;6.054;2023-03-04T00:36:27;101180.59;;;2.29;88.57
59825;BME280;45703;50.898;6.054;2023-03-04T00:38:53;101190.88;;;2.32;88.43
59825;BME280;45703;50.898;6.054;2023-03-04T00:41:18;101172.97;;;2.26;87.80
59825;BME280;45703;50.898;6.054;2023-03-04T00:43:43;101182.66;;;2.35;87.86
59825;BME280;45703;50.898;6.054;2023-03-04T00:46:09;101174.91;;;2.33;88.16
59825;BME280;45703;50.898;6.054;2023-03-04T00:48:34;101177.81;;;2.30;88.42
59825;BME280;45703;50.898;6.054;2023-03-04T00:50:59;101178.09;;;2.37;87.96
59825;BME280;45703;50.898;6.054;2023-03-04T00:53:25;101183.19;;;2.38;87.92
59825;BME280;45703;50.898;6.054;2023-03-04T00:55:50;101177.91;;;2.38;87.69
59825;BME280;45703;50.898;6.054;2023-03-04T00:58:16;101177.63;;;2.41;87.56
59825;BME280;45703;50.898;6.054;2023-03-04T01:00:41;101180.66;;;2.46;87.36
59825;BME280;45703;50.898;6.054;2023-03-04T01:03:07;101175.38;;;2.46;87.19
59825;BME280;45703;50.898;6.054;2023-03-04T01:05:32;101170.69;;;2.40;87.10
59825;BME280;45703;50.898;6.054;2023-03-04T01:08:00;101171.00;;;2.37;87.61
59825;BME280;45703;50.898;6.054;2023-03-04T01:10:27;101165.72;;;2.37;87.31
59825;BME280;45703;50.898;6.054;2023-03-04T01:12:52;101168.34;;;2.37;87.39
59825;BME280;45703;50.898;6.054;2023-03-04T01:15:17;101170.19;;;2.37;87.44
59825;BME280;45703;50.898;6.054;2023-03-04T01:17:43;101172.66;;;2.38;87.70
59825;BME280;45703;50.898;6.054;2023-03-04T01:20:09;101164.34;;;2.33;88.09
59825;BME280;45703;50.898;6.054;2023-03-04T01:22:35;101164.06;;;2.36;88.12
59825;BME280;45703;50.898;6.054;2023-03-04T01:25:00;101164.06;;;2.36;88.43
59825;BME280;45703;50.898;6.054;2023-03-04T01:27:26;101166.84;;;2.35;88.26
59825;BME280;45703;50.898;6.054;2023-03-04T01:29:51;101163.38;;;2.34;88.20
59825;BME280;45703;50.898;6.054;2023-03-04T01:32:16;101149.41;;;2.34;88.20
59825;BME280;45703;50.898;6.054;2023-03-04T01:34:42;101151.06;;;2.35;88.44
59825;BME280;45703;50.898;6.054;2023-03-04T01:37:07;101145.91;;;2.33;88.10
59825;BME280;45703;50.898;6.054;2023-03-04T01:39:33;101153.41;;;2.38;88.93
59825;BME280;45703;50.898;6.054;2023-03-04T01:41:59;101147.97;;;2.39;88.17
59825;BME280;45703;50.898;6.054;2023-03-04T01:44:25;101144.34;;;2.40;88.29
59825;BME280;45703;50.898;6.054;2023-03-04T01:46:52;101145.19;;;2.41;88.59
59825;BME280;45703;50.898;6.054;2023-03-04T01:49:19;101140.91;;;2.40;88.66
59825;BME280;45703;50.898;6.054;2023-03-04T01:51:51;101132.69;;;2.43;87.94
59825;BME280;45703;50.898;6.054;2023-03-04T01:54:19;101121.09;;;2.36;88.40
59825;BME280;45703;50.898;6.054;2023-03-04T01:56:46;101131.41;;;2.47;87.77
59825;BME280;45703;50.898;6.054;2023-03-04T01:59:21;101133.75;;;2.50;87.96
59825;BME280;45703;50.898;6.054;2023-03-04T02:04:18;101129.16;;;2.52;87.85
59825;BME280;45703;50.898;6.054;2023-03-04T02:06:45;101120.38;;;2.61;87.78
59825;BME280;45703;50.898;6.054;2023-03-04T02:09:12;101123.00;;;2.61;87.59
59825;BME280;45703;50.898;6.054;2023-03-04T02:11:38;101111.78;;;2.59;87.92
59825;BME280;45703;50.898;6.054;2023-03-04T02:14:04;101114.28;;;2.60;87.75
59825;BME280;45703;50.898;6.054;2023-03-04T02:16:30;101103.75;;;2.60;88.06
59825;BME280;45703;50.898;6.054;2023-03-04T02:18:56;101118.28;;;2.64;88.31
59825;BME280;45703;50.898;6.054;2023-03-04T02:21:25;101107.19;;;2.61;87.64
59825;BME280;45703;50.898;6.054;2023-03-04T02:26:35;101107.94;;;2.71;87.68
59825;BME280;45703;50.898;6.054;2023-03-04T02:29:02;101109.59;;;2.72;87.61
59825;BME280;45703;50.898;6.054;2023-03-04T02:33:59;101101.69;;;2.72;87.81
59825;BME280;45703;50.898;6.054;2023-03-04T02:36:25;101102.38;;;2.74;87.38
59825;BME280;45703;50.898;6.054;2023-03-04T02:38:52;101098.63;;;2.76;87.34
59825;BME280;45703;50.898;6.054;2023-03-04T02:41:21;101090.25;;;2.80;87.20
59825;BME280;45703;50.898;6.054;2023-03-04T02:43:52;101093.03;;;2.79;87.21
59825;BME280;45703;50.898;6.054;2023-03-04T02:46:17;101097.47;;;2.78;87.51
59825;BME280;45703;50.898;6.054;2023-03-04T02:48:43;101091.94;;;2.82;87.51
59825;BME280;45703;50.898;6.054;2023-03-04T02:51:08;101091.94;;;2.82;87.37
59825;BME280;45703;50.898;6.054;2023-03-04T02:53:34;101095.38;;;2.82;87.07
59825;BME280;45703;50.898;6.054;2023-03-04T02:55:59;101086.66;;;2.82;87.18
59825;BME280;45703;50.898;6.054;2023-03-04T02:58:25;101092.13;;;2.88;86.81
59825;BME280;45703;50.898;6.054;2023-03-04T03:00:50;101076.47;;;2.86;87.03
59825;BME280;45703;50.898;6.054;2023-03-04T03:03:15;101081.59;;;2.88;86.70
59825;BME280;45703;50.898;6.054;2023-03-04T03:05:41;101089.34;;;2.89;87.04
59825;BME280;45703;50.898;6.054;2023-03-04T03:08:06;101086.03;;;2.87;87.81
59825;BME280;45703;50.898;6.054;2023-03-04T03:10:32;101084.75;;;2.91;86.66
59825;BME280;45703;50.898;6.054;2023-03-04T03:12:58;101087.91;;;2.95;86.92
59825;BME280;45703;50.898;6.054;2023-03-04T03:15:23;101084.44;;;2.94;86.79
59825;BME280;45703;50.898;6.054;2023-03-04T03:17:49;101079.31;;;2.93;86.76
59825;BME280;45703;50.898;6.054;2023-03-04T03:20:15;101079.47;;;2.91;87.90
59825;BME280;45703;50.898;6.054;2023-03-04T03:22:41;101075.19;;;2.90;87.56
59825;BME280;45703;50.898;6.054;2023-03-04T03:25:08;101087.41;;;2.91;87.48
59825;BME280;45703;50.898;6.054;2023-03-04T03:27:34;101073.38;;;2.91;87.57
59825;BME280;45703;50.898;6.054;2023-03-04T03:29:59;101070.41;;;2.94;87.46
59825;BME280;45703;50.898;6.054;2023-03-04T03:32:24;101063.72;;;2.99;86.81
59825;BME280;45703;50.898;6.054;2023-03-04T03:34:50;101059.78;;;3.03;86.55
59825;BME280;45703;50.898;6.054;2023-03-04T03:37:16;101063.09;;;3.05;86.92
59825;BME280;45703;50.898;6.054;2023-03-04T03:39:42;101059.25;;;3.00;87.07
59825;BME280;45703;50.898;6.054;2023-03-04T03:42:07;101053.00;;;3.01;86.62
59825;BME280;45703;50.898;6.054;2023-03-04T03:44:32;101047.38;;;2.96;87.02
59825;BME280;45703;50.898;6.054;2023-03-04T03:46:58;101058.44;;;2.99;87.10
59825;BME280;45703;50.898;6.054;2023-03-04T03:49:23;101062.38;;;2.95;87.05
59825;BME280;45703;50.898;6.054;2023-03-04T03:51:49;101059.06;;;2.93;87.88
59825;BME280;45703;50.898;6.054;2023-03-04T03:54:14;101056.56;;;2.92;88.27
59825;BME280;45703;50.898;6.054;2023-03-04T03:56:40;101062.38;;;2.95;87.59
59825;BME280;45703;50.898;6.054;2023-03-04T03:59:05;101062.19;;;2.97;87.15
59825;BME280;45703;50.898;6.054;2023-03-04T04:01:31;101060.09;;;3.00;88.65
59825;BME280;45703;50.898;6.054;2023-03-04T04:03:58;101066.34;;;2.99;87.58
59825;BME280;45703;50.898;6.054;2023-03-04T04:06:24;101071.31;;;3.02;87.38
59825;BME280;45703;50.898;6.054;2023-03-04T04:08:49;101061.75;;;3.01;87.31
59825;BME280;45703;50.898;6.054;2023-03-04T04:11:15;101061.91;;;3.00;87.05
59825;BME280;45703;50.898;6.054;2023-03-04T04:13:40;101065.06;;;3.03;87.86
59825;BME280;45703;50.898;6.054;2023-03-04T04:16:06;101068.25;;;3.07;87.57
59825;BME280;45703;50.898;6.054;2023-03-04T04:18:31;101058.13;;;3.02;87.39
59825;BME280;45703;50.898;6.054;2023-03-04T04:20:57;101062.66;;;3.10;87.14
59825;BME280;45703;50.898;6.054;2023-03-04T04:23:22;101065.00;;;3.13;87.10
59825;BME280;45703;50.898;6.054;2023-03-04T04:25:48;101062.50;;;3.11;86.91
59825;BME280;45703;50.898;6.054;2023-03-04T04:28:13;101067.47;;;3.14;86.92
59825;BME280;45703;50.898;6.054;2023-03-04T04:30:39;101067.47;;;3.14;86.91
59825;BME280;45703;50.898;6.054;2023-03-04T04:33:04;101068.31;;;3.15;86.69
59825;BME280;45703;50.898;6.054;2023-03-04T04:35:34;101058.06;;;3.12;86.92
59825;BME280;45703;50.898;6.054;2023-03-04T04:38:03;101058.56;;;3.15;88.44
59825;BME280;45703;50.898;6.054;2023-03-04T04:40:28;101059.84;;;3.11;87.44
59825;BME280;45703;50.898;6.054;2023-03-04T04:42:53;101061.19;;;3.15;87.00
59825;BME280;45703;50.898;6.054;2023-03-04T04:45:19;101068.81;;;3.18;88.96
59825;BME280;45703;50.898;6.054;2023-03-04T04:47:44;101060.53;;;3.13;88.91
59825;BME280;45703;50.898;6.054;2023-03-04T04:50:10;101063.53;;;3.18;87.77
59825;BME280;45703;50.898;6.054;2023-03-04T04:52:36;101067.16;;;3.17;88.11
59825;BME280;45703;50.898;6.054;2023-03-04T04:55:01;101071.13;;;3.21;88.47
59825;BME280;45703;50.898;6.054;2023-03-04T04:57:27;101060.22;;;3.16;89.04
59825;BME280;45703;50.898;6.054;2023-03-04T04:59:52;101068.00;;;3.18;88.05
59825;BME280;45703;50.898;6.054;2023-03-04T05:02:18;101072.13;;;3.20;88.86
59825;BME280;45703;50.898;6.054;2023-03-04T05:04:44;101074.63;;;3.22;88.41
59825;BME280;45703;50.898;6.054;2023-03-04T05:07:09;101063.53;;;3.18;87.63
59825;BME280;45703;50.898;6.054;2023-03-04T05:09:35;101069.03;;;3.25;87.79
59825;BME280;45703;50.898;6.054;2023-03-04T05:12:00;101081.06;;;3.27;88.03
59825;BME280;45703;50.898;6.054;2023-03-04T05:14:25;101075.78;;;3.27;88.67
59825;BME280;45703;50.898;6.054;2023-03-04T05:16:51;101086.03;;;3.30;88.16
59825;BME280;45703;50.898;6.054;2023-03-04T05:19:17;101079.78;;;3.31;87.12
59825;BME280;45703;50.898;6.054;2023-03-04T05:21:43;101083.13;;;3.33;87.45
59825;BME280;45703;50.898;6.054;2023-03-04T05:24:08;101074.50;;;3.31;87.39
59825;BME280;45703;50.898;6.054;2023-03-04T05:26:34;101075.03;;;3.35;87.08
59825;BME280;45703;50.898;6.054;2023-03-04T05:28:59;101073.53;;;3.32;87.39
59825;BME280;45703;50.898;6.054;2023-03-04T05:31:25;101063.13;;;3.31;88.43
59825;BME280;45703;50.898;6.054;2023-03-04T05:33:50;101071.59;;;3.34;89.00
59825;BME280;45703;50.898;6.054;2023-03-04T05:36:15;101079.63;;;3.33;88.25
59825;BME280;45703;50.898;6.054;2023-03-04T05:38:41;101076.84;;;3.34;88.23
59825;BME280;45703;50.898;6.054;2023-03-04T05:41:06;101071.34;;;3.28;87.37
59825;BME280;45703;50.898;6.054;2023-03-04T05:43:32;101087.25;;;3.36;89.26
59825;BME280;45703;50.898;6.054;2023-03-04T05:46:00;101082.28;;;3.33;87.77
59825;BME280;45703;50.898;6.054;2023-03-04T05:48:26;101078.19;;;3.38;87.79
59825;BME280;45703;50.898;6.054;2023-03-04T05:50:58;101086.13;;;3.38;89.06
59825;BME280;45703;50.898;6.054;2023-03-04T05:53:24;101089.25;;;3.42;88.51
59825;BME280;45703;50.898;6.054;2023-03-04T05:55:50;101079.19;;;3.37;88.00
59825;BME280;45703;50.898;6.054;2023-03-04T05:58:16;101085.81;;;3.41;89.40
59825;BME280;45703;50.898;6.054;2023-03-04T06:00:41;101078.19;;;3.38;88.85
59825;BME280;45703;50.898;6.054;2023-03-04T06:03:16;101073.75;;;3.39;87.98
59825;BME280;45703;50.898;6.054;2023-03-04T06:05:42;101085.81;;;3.41;87.71
59825;BME280;45703;50.898;6.054;2023-03-04T06:08:09;101090.78;;;3.44;88.99
59825;BME280;45703;50.898;6.054;2023-03-04T06:10:34;101080.84;;;3.38;88.66
59825;BME280;45703;50.898;6.054;2023-03-04T06:13:00;101087.16;;;3.45;87.88
59825;BME280;45703;50.898;6.054;2023-03-04T06:15:25;101087.47;;;3.42;88.51
59825;BME280;45703;50.898;6.054;2023-03-04T06:17:50;101089.63;;;3.47;88.42
59825;BME280;45703;50.898;6.054;2023-03-04T06:20:16;101092.94;;;3.49;88.20
59825;BME280;45703;50.898;6.054;2023-03-04T06:22:41;101084.66;;;3.44;88.18
59825;BME280;45703;50.898;6.054;2023-03-04T06:25:07;101097.41;;;3.48;88.17
59825;BME280;45703;50.898;6.054;2023-03-04T06:27:32;101099.88;;;3.50;87.57
59825;BME280;45703;50.898;6.054;2023-03-04T06:29:59;101103.34;;;3.50;87.60
59825;BME280;45703;50.898;6.054;2023-03-04T06:32:25;101102.50;;;3.50;87.92
59825;BME280;45703;50.898;6.054;2023-03-04T06:34:51;101099.88;;;3.50;87.51
59825;BME280;45703;50.898;6.054;2023-03-04T06:37:16;101107.16;;;3.56;88.16
59825;BME280;45703;50.898;6.054;2023-03-04T06:39:41;101103.03;;;3.53;89.07
59825;BME280;45703;50.898;6.054;2023-03-04T06:42:07;101108.63;;;3.50;89.39
59825;BME280;45703;50.898;6.054;2023-03-04T06:44:32;101109.31;;;3.52;89.31
59825;BME280;45703;50.898;6.054;2023-03-04T06:46:58;101110.66;;;3.56;88.03
59825;BME280;45703;50.898;6.054;2023-03-04T06:49:23;101114.28;;;3.55;88.72
59825;BME280;45703;50.898;6.054;2023-03-04T06:51:48;101117.28;;;3.60;88.26
59825;BME280;45703;50.898;6.054;2023-03-04T06:54:14;101115.63;;;3.59;87.73
59825;BME280;45703;50.898;6.054;2023-03-04T06:56:39;101115.16;;;3.64;88.22
59825;BME280;45703;50.898;6.054;2023-03-04T06:59:04;101119.47;;;3.65;87.72
59825;BME280;45703;50.898;6.054;2023-03-04T07:01:30;101109.34;;;3.60;87.42
59825;BME280;45703;50.898;6.054;2023-03-04T07:03:56;101117.31;;;3.68;88.14
59825;BME280;45703;50.898;6.054;2023-03-04T07:06:24;101116.31;;;3.69;87.87
59825;BME280;45703;50.898;6.054;2023-03-04T07:08:50;101120.31;;;3.73;87.95
59825;BME280;45703;50.898;6.054;2023-03-04T07:11:16;101122.94;;;3.73;88.51
59825;BME280;45703;50.898;6.054;2023-03-04T07:13:41;101115.88;;;3.74;88.60
59825;BME280;45703;50.898;6.054;2023-03-04T07:16:11;101126.78;;;3.79;88.01
59825;BME280;45703;50.898;6.054;2023-03-04T07:18:37;101126.69;;;3.88;87.58
59825;BME280;45703;50.898;6.054;2023-03-04T07:21:03;101126.69;;;3.88;87.70
59825;BME280;45703;50.898;6.054;2023-03-04T07:23:29;101137.63;;;3.93;87.62
59825;BME280;45703;50.898;6.054;2023-03-04T07:25:54;101137.44;;;3.95;87.65
59825;BME280;45703;50.898;6.054;2023-03-04T07:28:20;101132.16;;;3.95;88.30
59825;BME280;45703;50.898;6.054;2023-03-04T07:30:45;101130.50;;;3.94;87.67
59825;BME280;45703;50.898;6.054;2023-03-04T07:33:12;101129.38;;;3.96;88.43
59825;BME280;45703;50.898;6.054;2023-03-04T07:35:38;101130.19;;;3.97;88.97
59825;BME280;45703;50.898;6.054;2023-03-04T07:38:03;101139.44;;;4.01;88.49
59825;BME280;45703;50.898;6.054;2023-03-04T07:40:28;101138.31;;;4.03;89.11
59825;BME280;45703;50.898;6.054;2023-03-04T07:42:54;101140.97;;;4.03;89.64
59825;BME280;45703;50.898;6.054;2023-03-04T07:45:20;101144.09;;;4.07;89.14
59825;BME280;45703;50.898;6.054;2023-03-04T07:47:46;101141.19;;;4.10;87.94
59825;BME280;45703;50.898;6.054;2023-03-04T07:50:12;101144.47;;;4.12;87.40
59825;BME280;45703;50.898;6.054;2023-03-04T07:52:39;101143.84;;;4.18;87.36
59825;BME280;45703;50.898;6.054;2023-03-04T07:55:05;101131.41;;;4.10;88.68
59825;BME280;45703;50.898;6.054;2023-03-04T07:57:31;101149.63;;;4.21;87.85
59825;BME280;45703;50.898;6.054;2023-03-04T07:59:56;101150.97;;;4.25;87.92
59825;BME280;45703;50.898;6.054;2023-03-04T08:02:22;101154.28;;;4.27;87.49
59825;BME280;45703;50.898;6.054;2023-03-04T08:04:47;101159.41;;;4.28;88.30
59825;BME280;45703;50.898;6.054;2023-03-04T08:07:12;101155.63;;;4.31;88.13
59825;BME280;45703;50.898;6.054;2023-03-04T08:09:38;101147.84;;;4.29;87.81
59825;BME280;45703;50.898;6.054;2023-03-04T08:12:03;101149.88;;;4.35;87.05
59825;BME280;45703;50.898;6.054;2023-03-04T08:14:29;101148.06;;;4.36;88.03
59825;BME280;45703;50.898;6.054;2023-03-04T08:16:54;101153.84;;;4.39;87.33
59825;BME280;45703;50.898;6.054;2023-03-04T08:19:20;101156.03;;;4.44;87.03
59825;BME280;45703;50.898;6.054;2023-03-04T08:21:45;101152.38;;;4.45;87.44
59825;BME280;45703;50.898;6.054;2023-03-04T08:24:11;101157.03;;;4.51;86.93
59825;BME280;45703;50.898;6.054;2023-03-04T08:26:39;101160.16;;;4.54;86.57
59825;BME280;45703;50.898;6.054;2023-03-04T08:29:11;101157.72;;;4.61;86.16
59825;BME280;45703;50.898;6.054;2023-03-04T08:31:37;101167.97;;;4.64;86.43
59825;BME280;45703;50.898;6.054;2023-03-04T08:34:04;101161.03;;;4.63;85.83
59825;BME280;45703;50.898;6.054;2023-03-04T08:36:30;101172.63;;;4.70;85.93
59825;BME280;45703;50.898;6.054;2023-03-04T08:38:55;101169.00;;;4.71;86.34
59825;BME280;45703;50.898;6.054;2023-03-04T08:41:21;101172.81;;;4.76;86.36
59825;BME280;45703;50.898;6.054;2023-03-04T08:43:47;101173.63;;;4.77;86.38
59825;BME280;45703;50.898;6.054;2023-03-04T08:46:12;101173.97;;;4.82;86.20
59825;BME280;45703;50.898;6.054;2023-03-04T08:48:37;101176.63;;;4.82;86.32
59825;BME280;45703;50.898;6.054;2023-03-04T08:51:08;101170.50;;;4.81;86.20
59825;BME280;45703;50.898;6.054;2023-03-04T08:53:34;101184.59;;;4.90;86.28
59825;BME280;45703;50.898;6.054;2023-03-04T08:56:01;101171.03;;;4.85;86.28
59825;BME280;45703;50.898;6.054;2023-03-04T08:58:26;101183.09;;;4.87;86.32
59825;BME280;45703;50.898;6.054;2023-03-04T09:00:51;101187.72;;;4.93;86.55
59825;BME280;45703;50.898;6.054;2023-03-04T09:03:17;101177.00;;;4.95;86.61
59825;BME280;45703;50.898;6.054;2023-03-04T09:05:45;101171.72;;;4.95;86.22
59825;BME280;45703;50.898;6.054;2023-03-04T09:08:17;101173.38;;;4.96;86.81
59825;BME280;45703;50.898;6.054;2023-03-04T09:10:44;101177.16;;;4.93;87.61
59825;BME280;45703;50.898;6.054;2023-03-04T09:13:11;101180.31;;;4.97;86.95
59825;BME280;45703;50.898;6.054;2023-03-04T09:15:41;101179.13;;;4.99;86.67
59825;BME280;45703;50.898;6.054;2023-03-04T09:18:08;101182.78;;;5.06;86.70
59825;BME280;45703;50.898;6.054;2023-03-04T09:20:34;101172.38;;;5.05;86.51
59825;BME280;45703;50.898;6.054;2023-03-04T09:22:59;101169.22;;;5.09;86.27
59825;BME280;45703;50.898;6.054;2023-03-04T09:25:25;101175.34;;;5.10;86.54
59825;BME280;45703;50.898;6.054;2023-03-04T09:27:50;101170.41;;;5.15;86.04
59825;BME280;45703;50.898;6.054;2023-03-04T09:30:16;101171.56;;;5.20;86.74
59825;BME280;45703;50.898;6.054;2023-03-04T09:32:41;101163.47;;;5.22;86.80
59825;BME280;45703;50.898;6.054;2023-03-04T09:35:07;101161.81;;;5.29;86.72
59825;BME280;45703;50.898;6.054;2023-03-04T09:37:34;101151.88;;;5.31;86.28
59825;BME280;45703;50.898;6.054;2023-03-04T09:40:00;101151.56;;;5.42;86.12
59825;BME280;45703;50.898;6.054;2023-03-04T09:42:47;101171.25;;;5.55;85.78
59825;BME280;45703;50.898;6.054;2023-03-04T09:45:20;101169.28;;;5.65;85.56
59825;BME280;45703;50.898;6.054;2023-03-04T09:47:48;101164.47;;;5.61;85.49
59825;BME280;45703;50.898;6.054;2023-03-04T09:50:16;101160.81;;;5.69;84.93
59825;BME280;45703;50.898;6.054;2023-03-04T09:53:32;101141.25;;;5.70;84.92
59825;BME280;45703;50.898;6.054;2023-03-04T09:55:39;101147.88;;;5.82;84.83
59825;BME280;45703;50.898;6.054;2023-03-04T09:58:27;101154.00;;;5.99;84.78
59825;BME280;45703;50.898;6.054;2023-03-04T10:01:10;101146.88;;;5.99;83.92
59825;BME280;45703;50.898;6.054;2023-03-04T10:03:45;101158.75;;;6.11;83.93
59825;BME280;45703;50.898;6.054;2023-03-04T10:06:17;101152.31;;;6.14;83.54
59825;BME280;45703;50.898;6.054;2023-03-04T10:11:41;101165.66;;;6.28;82.58
59825;BME280;45703;50.898;6.054;2023-03-04T10:16:59;101148.41;;;6.40;82.41
59825;BME280;45703;50.898;6.054;2023-03-04T10:19:46;101150.41;;;6.38;82.01
59825;BME280;45703;50.898;6.054;2023-03-04T10:22:24;101146.50;;;6.49;82.50
59825;BME280;45703;50.898;6.054;2023-03-04T10:24:55;101151.00;;;6.48;81.84
59825;BME280;45703;50.898;6.054;2023-03-04T10:27:20;101132.25;;;6.50;82.19
59825;BME280;45703;50.898;6.054;2023-03-04T10:29:47;101133.41;;;6.55;81.58
59825;BME280;45703;50.898;6.054;2023-03-04T10:32:15;101132.06;;;6.59;81.89
59825;BME280;45703;50.898;6.054;2023-03-04T10:34:42;101125.28;;;6.49;80.66
59825;BME280;45703;50.898;6.054;2023-03-04T10:37:08;101133.09;;;6.50;80.99
59825;BME280;45703;50.898;6.054;2023-03-04T10:39:44;101140.88;;;6.52;81.40
59825;BME280;45703;50.898;6.054;2023-03-04T10:44:41;101131.84;;;6.38;81.67
59825;BME280;45703;50.898;6.054;2023-03-04T10:47:09;101129.84;;;6.32;81.67
59825;BME280;45703;50.898;6.054;2023-03-04T10:49:58;101132.34;;;6.34;82.38
59825;BME280;45703;50.898;6.054;2023-03-04T10:54:57;101128.34;;;6.38;81.36
59825;BME280;45703;50.898;6.054;2023-03-04T10:57:34;101133.66;;;6.38;81.48
59825;BME280;45703;50.898;6.054;2023-03-04T11:00:25;101130.16;;;6.37;81.61
59825;BME280;45703;50.898;6.054;2023-03-04T11:02:51;101136.44;;;6.36;81.77
59825;BME280;45703;50.898;6.054;2023-03-04T11:05:22;101132.00;;;6.37;81.65
59825;BME280;45703;50.898;6.054;2023-03-04T11:07:58;101130.69;;;6.33;81.38
59825;BME280;45703;50.898;6.054;2023-03-04T11:15:53;101131.25;;;6.81;82.93
59825;BME280;45703;50.898;6.054;2023-03-04T11:18:52;101121.13;;;6.85;81.48
59825;BME280;45703;50.898;6.054;2023-03-04T11:21:21;101114.63;;;6.87;80.92
59825;BME280;45703;50.898;6.054;2023-03-04T11:26:30;101101.66;;;6.92;80.47
59825;BME280;45703;50.898;6.054;2023-03-04T11:29:06;101105.44;;;6.98;80.52
59825;BME280;45703;50.898;6.054;2023-03-04T11:31:39;101102.59;;;6.99;80.39
59825;BME280;45703;50.898;6.054;2023-03-04T11:39:36;101098.53;;;7.11;79.61
59825;BME280;45703;50.898;6.054;2023-03-04T11:42:38;101097.53;;;7.12;78.49
59825;BME280;45703;50.898;6.054;2023-03-04T11:45:17;101089.38;;;7.13;80.38
59825;BME280;45703;50.898;6.054;2023-03-04T11:47:52;101082.59;;;7.11;80.07
59825;BME280;45703;50.898;6.054;2023-03-04T11:50:28;101091.94;;;7.07;79.19
59825;BME280;45703;50.898;6.054;2023-03-04T11:55:44;101084.84;;;7.00;80.29
59825;BME280;45703;50.898;6.054;2023-03-04T11:58:40;101078.53;;;7.01;79.89
59825;BME280;45703;50.898;6.054;2023-03-04T12:40:48;101037.06;;;7.00;79.63
59825;BME280;45703;50.898;6.054;2023-03-04T12:43:26;101019.06;;;6.87;79.94
59825;BME280;45703;50.898;6.054;2023-03-04T12:51:33;101024.22;;;6.89;79.75
59825;BME280;45703;50.898;6.054;2023-03-04T12:56:57;101016.09;;;6.90;80.21
59825;BME280;45703;50.898;6.054;2023-03-04T12:59:25;101015.09;;;6.91;79.32
59825;BME280;45703;50.898;6.054;2023-03-04T13:04:49;101008.69;;;7.00;79.41
59825;BME280;45703;50.898;6.054;2023-03-04T13:07:40;100997.34;;;7.06;79.54
59825;BME280;45703;50.898;6.054;2023-03-04T13:10:18;101007.25;;;7.12;79.82
59825;BME280;45703;50.898;6.054;2023-03-04T13:12:55;101004.88;;;7.17;79.34
59825;BME280;45703;50.898;6.054;2023-03-04T13:17:48;101004.88;;;7.17;78.34
59825;BME280;45703;50.898;6.054;2023-03-04T13:43:37;100974.47;;;7.34;78.28
59825;BME280;45703;50.898;6.054;2023-03-04T13:51:44;100965.22;;;7.30;79.12
59825;BME280;45703;50.898;6.054;2023-03-04T13:54:30;100956.81;;;7.26;78.78
59825;BME280;45703;50.898;6.054;2023-03-04T13:59:31;100963.50;;;7.22;78.88
59825;BME280;45703;50.898;6.054;2023-03-04T14:02:11;100964.16;;;7.24;78.98
59825;BME280;45703;50.898;6.054;2023-03-04T14:04:41;100956.34;;;7.23;79.23
59825;BME280;45703;50.898;6.054;2023-03-04T14:07:36;100951.50;;;7.26;79.21
59825;BME280;45703;50.898;6.054;2023-03-04T14:12:34;100941.63;;;7.20;79.59
59825;BME280;45703;50.898;6.054;2023-03-04T14:15:03;100938.69;;;7.15;79.91
59825;BME280;45703;50.898;6.054;2023-03-04T14:17:32;100942.78;;;7.18;79.96
59825;BME280;45703;50.898;6.054;2023-03-04T14:20:01;100929.16;;;7.21;79.82
59825;BME280;45703;50.898;6.054;2023-03-04T14:22:31;100938.75;;;7.22;79.95
59825;BME280;45703;50.898;6.054;2023-03-04T14:27:43;100935.84;;;7.17;80.08
59825;BME280;45703;50.898;6.054;2023-03-04T14:30:20;100940.50;;;7.15;80.16
59825;BME280;45703;50.898;6.054;2023-03-04T14:32:46;100940.50;;;7.15;80.32
59825;BME280;45703;50.898;6.054;2023-03-04T14:35:22;100930.53;;;7.17;80.40
59825;BME280;45703;50.898;6.054;2023-03-04T14:40:23;100919.00;;;7.10;79.82
59825;BME280;45703;50.898;6.054;2023-03-04T14:42:55;100919.78;;;7.10;80.28
59825;BME280;45703;50.898;6.054;2023-03-04T14:45:22;100913.41;;;7.05;80.57
59825;BME280;45703;50.898;6.054;2023-03-04T14:47:51;100917.34;;;7.09;80.48
59825;BME280;45703;50.898;6.054;2023-03-04T14:50:19;100915.69;;;7.08;80.31
59825;BME280;45703;50.898;6.054;2023-03-04T14:52:49;100916.06;;;7.05;80.71
59825;BME280;45703;50.898;6.054;2023-03-04T14:55:27;100909.09;;;7.04;80.82
59825;BME280;45703;50.898;6.054;2023-03-04T14:58:07;100908.25;;;7.04;80.83
59825;BME280;45703;50.898;6.054;2023-03-04T15:00:35;100909.09;;;7.04;80.95
59825;BME280;45703;50.898;6.054;2023-03-04T15:03:23;100910.75;;;7.05;81.10
59825;BME280;45703;50.898;6.054;2023-03-04T15:05:48;100900.13;;;7.05;80.97
59825;BME280;45703;50.898;6.054;2023-03-04T15:10:57;100891.53;;;7.03;81.32
59825;BME280;45703;50.898;6.054;2023-03-04T15:13:39;100892.69;;;7.01;81.31